ePrivacy and GPDR Cookie Consent by Cookie Consent
EmailTwitter


Observations de surface / Royaume-Uni / EGLL (03772)

Régions: Québec | Canada | États-Unis | Europe | France | UK | Ailleurs
Station
Affichage
Infos & localisation pour EGLL (03772) | Aide pour décoder les METARs

Observations prises le 2023-02-07 à 11H50 UTC à LONDON/HEATHROW, UK (EGLL)

Etat du ciel: ciel variable.

Obstacle(s) à la visibilité: brume.

Température: 2.0 Celsius

Point de rosée: 2.0 Celsius

Humidité relative: 100%

Vents: Variable à 4 km/h ou 2 noeuds.

Pression au niveau moyen de la mer: 103.90 kilopascals.

Visibilité horizontale: 1.55 milles terrestres ou 2.49 kilomètres.

Observation METAR:

EGLL 071150Z VRB02KT 2500 R27L/0900U BR SCT001 02/02 Q1039 BECMG CAVOK=